createdAt,value
2023-03-05T00:00:23.081Z,1001.6
2023-03-05T00:01:24.516Z,1001.6
2023-03-05T00:02:25.991Z,1001.5
2023-03-05T00:03:27.527Z,1001.6
2023-03-05T00:04:28.963Z,1001.5
2023-03-05T00:05:30.380Z,1001.5
2023-03-05T00:06:31.794Z,1001.5
2023-03-05T00:07:33.209Z,1001.5
2023-03-05T00:08:34.626Z,1001.5
2023-03-05T00:09:36.425Z,1001.5
2023-03-05T00:10:37.864Z,1001.5
2023-03-05T00:11:39.251Z,1001.5
2023-03-05T00:12:40.674Z,1001.4
2023-03-05T00:13:42.086Z,1001.5
2023-03-05T00:14:43.500Z,1001.5
2023-03-05T00:15:45.082Z,1001.5
2023-03-05T00:16:46.616Z,1001.4
2023-03-05T00:17:48.026Z,1001.4
2023-03-05T00:18:49.444Z,1001.4
2023-03-05T00:19:50.933Z,1001.4
2023-03-05T00:20:52.355Z,1001.4
2023-03-05T00:21:53.769Z,1001.4
2023-03-05T00:22:55.179Z,1001.4
2023-03-05T00:23:56.608Z,1001.4
2023-03-05T00:24:58.024Z,1001.4
2023-03-05T00:25:59.462Z,1001.4
2023-03-05T00:27:00.856Z,1001.3
2023-03-05T00:28:02.277Z,1001.3
2023-03-05T00:29:03.689Z,1001.3
2023-03-05T00:30:05.105Z,1001.3
2023-03-05T00:31:06.644Z,1001.3
2023-03-05T00:32:08.650Z,1001.3
2023-03-05T00:33:10.180Z,1001.3
2023-03-05T00:34:11.594Z,1001.3
2023-03-05T00:35:13.009Z,1001.3
2023-03-05T00:36:14.436Z,1001.2
2023-03-05T00:37:15.853Z,1001.2
2023-03-05T00:38:17.270Z,1001.3
2023-03-05T00:39:18.675Z,1001.3
2023-03-05T00:40:20.190Z,1001.3
2023-03-05T00:41:21.678Z,1001.3
2023-03-05T00:42:23.074Z,1001.3
2023-03-05T00:43:24.487Z,1001.3
2023-03-05T00:44:25.903Z,1001.3
2023-03-05T00:45:27.314Z,1001.3
2023-03-05T00:46:28.832Z,1001.3
2023-03-05T00:47:30.295Z,1001.3
2023-03-05T00:48:31.709Z,1001.3
2023-03-05T00:49:33.128Z,1001.3
2023-03-05T00:50:34.545Z,1001.3
2023-03-05T00:51:35.956Z,1001.3
2023-03-05T00:52:37.375Z,1001.3
2023-03-05T00:53:38.792Z,1001.3
2023-03-05T00:54:40.204Z,1001.3
2023-03-05T00:55:41.621Z,1001.3
2023-03-05T00:56:43.062Z,1001.3
2023-03-05T00:57:44.456Z,1001.3
2023-03-05T00:58:45.867Z,1001.3
2023-03-05T00:59:47.287Z,1001.3
2023-03-05T01:00:48.703Z,1001.3
2023-03-05T01:01:50.333Z,1001.2
2023-03-05T01:02:51.793Z,1001.2
2023-03-05T01:03:53.208Z,1001.2
2023-03-05T01:04:54.657Z,1001.2
2023-03-05T01:05:56.113Z,1001.2
2023-03-05T01:06:57.528Z,1001.2
2023-03-05T01:07:58.940Z,1001.2
2023-03-05T01:09:00.354Z,1001.2
2023-03-05T01:10:01.792Z,1001.2
2023-03-05T01:11:03.179Z,1001.2
2023-03-05T01:12:04.688Z,1001.2
2023-03-05T01:13:06.085Z,1001.2
2023-03-05T01:14:07.499Z,1001.2
2023-03-05T01:15:08.923Z,1001.1
2023-03-05T01:16:10.523Z,1001.2
2023-03-05T01:17:12.108Z,1001.2
2023-03-05T01:18:13.531Z,1001.1
2023-03-05T01:19:14.944Z,1001.1
2023-03-05T01:20:16.353Z,1001.1
2023-03-05T01:21:17.774Z,1001.1
2023-03-05T01:22:19.319Z,1001.1
2023-03-05T01:23:20.894Z,1001.1
2023-03-05T01:24:22.318Z,1001.1
2023-03-05T01:25:23.732Z,1001.1
2023-03-05T01:26:25.165Z,1001.1
2023-03-05T01:27:26.576Z,1001.1
2023-03-05T01:28:27.985Z,1001
2023-03-05T01:29:29.398Z,1001
2023-03-05T01:30:30.805Z,1001
2023-03-05T01:31:32.324Z,1001
2023-03-05T01:32:36.072Z,1001
2023-03-05T01:33:37.567Z,1001
2023-03-05T01:34:38.992Z,1001
2023-03-05T01:35:40.558Z,1001
2023-03-05T01:36:41.976Z,1000.9
2023-03-05T01:37:43.393Z,1000.9
2023-03-05T01:38:44.806Z,1000.9
2023-03-05T01:39:46.223Z,1000.8
2023-03-05T01:40:47.643Z,1000.8
2023-03-05T01:41:49.057Z,1000.8
2023-03-05T01:42:50.505Z,1000.7
2023-03-05T01:43:51.898Z,1000.7
2023-03-05T01:44:53.318Z,1000.7
2023-03-05T01:45:54.844Z,1000.7
2023-03-05T01:46:56.259Z,1000.7
2023-03-05T01:47:57.899Z,1000.7
2023-03-05T01:48:59.543Z,1000.7
2023-03-05T01:50:00.943Z,1000.7
2023-03-05T01:51:02.357Z,1000.7
2023-03-05T01:52:03.781Z,1000.7
2023-03-05T01:53:05.193Z,1000.7
2023-03-05T01:54:06.608Z,1000.7
2023-03-05T01:55:08.029Z,1000.6
2023-03-05T01:56:09.440Z,1000.6
2023-03-05T01:57:10.860Z,1000.6
2023-03-05T01:58:12.690Z,1000.6
2023-03-05T01:59:14.088Z,1000.6
2023-03-05T02:00:15.496Z,1000.6
2023-03-05T02:01:17.152Z,1000.6
2023-03-05T02:02:18.764Z,1000.6
2023-03-05T02:03:20.201Z,1000.6
2023-03-05T02:04:21.600Z,1000.5
2023-03-05T02:05:23.021Z,1000.5
2023-03-05T02:06:24.429Z,1000.5
2023-03-05T02:07:25.844Z,1000.5
2023-03-05T02:08:27.259Z,1000.5
2023-03-05T02:09:28.709Z,1000.5
2023-03-05T02:10:30.102Z,1000.5
2023-03-05T02:11:31.512Z,1000.5
2023-03-05T02:12:32.927Z,1000.4
2023-03-05T02:13:34.377Z,1000.4
2023-03-05T02:14:35.770Z,1000.4
2023-03-05T02:15:37.183Z,1000.4
2023-03-05T02:16:38.884Z,1000.4
2023-03-05T02:17:40.587Z,1000.4
2023-03-05T02:18:42.005Z,1000.3
2023-03-05T02:19:43.424Z,1000.3
2023-03-05T02:20:44.838Z,1000.3
2023-03-05T02:21:46.247Z,1000.3
2023-03-05T02:22:47.676Z,1000.3
2023-03-05T02:23:49.077Z,1000.2
2023-03-05T02:24:50.495Z,1000.2
2023-03-05T02:25:51.909Z,1000.2
2023-03-05T02:26:53.340Z,1000.2
2023-03-05T02:27:54.747Z,1000.2
2023-03-05T02:28:56.184Z,1000.2
2023-03-05T02:29:57.580Z,1000.2
2023-03-05T02:30:58.994Z,1000.2
2023-03-05T02:32:00.607Z,1000.2
2023-03-05T02:33:02.305Z,1000.2
2023-03-05T02:34:03.720Z,1000.2
2023-03-05T02:35:05.144Z,1000.1
2023-03-05T02:36:06.555Z,1000.1
2023-03-05T02:37:07.962Z,1000.1
2023-03-05T02:38:09.388Z,1000.1
2023-03-05T02:39:10.793Z,1000.1
2023-03-05T02:40:12.206Z,1000.1
2023-03-05T02:41:13.627Z,1000.1
2023-03-05T02:42:15.038Z,1000.1
2023-03-05T02:43:16.453Z,1000
2023-03-05T02:44:17.906Z,1000
2023-03-05T02:45:19.299Z,1000
2023-03-05T02:46:25.639Z,1000
2023-03-05T02:47:27.047Z,1000
2023-03-05T02:48:28.461Z,1000
2023-03-05T02:49:29.880Z,1000
2023-03-05T02:50:31.293Z,1000
2023-03-05T02:51:32.741Z,1000
2023-03-05T02:52:34.138Z,999.9
2023-03-05T02:53:35.543Z,1000
2023-03-05T02:54:36.957Z,1000
2023-03-05T02:55:38.392Z,1000
2023-03-05T02:56:39.796Z,1000
2023-03-05T02:57:41.211Z,1000
2023-03-05T02:58:42.629Z,1000
2023-03-05T02:59:44.162Z,1000
2023-03-05T03:00:45.871Z,1000
2023-03-05T03:01:47.237Z,999.9
2023-03-05T03:02:48.741Z,1000
2023-03-05T03:03:50.171Z,1000
2023-03-05T03:04:51.587Z,999.9
2023-03-05T03:05:53.000Z,999.9
2023-03-05T03:06:54.417Z,1000
2023-03-05T03:07:55.828Z,1000
2023-03-05T03:08:57.248Z,999.9
2023-03-05T03:09:58.660Z,999.9
2023-03-05T03:11:00.090Z,999.9
2023-03-05T03:12:01.486Z,999.9
2023-03-05T03:13:02.905Z,999.9
2023-03-05T03:14:04.316Z,999.9
2023-03-05T03:15:05.764Z,999.9
2023-03-05T03:16:07.155Z,999.8
2023-03-05T03:17:08.974Z,999.8
2023-03-05T03:18:10.387Z,999.8
2023-03-05T03:19:11.812Z,999.8
2023-03-05T03:20:13.218Z,999.8
2023-03-05T03:21:14.633Z,999.8
2023-03-05T03:22:16.049Z,999.8
2023-03-05T03:23:17.468Z,999.7
2023-03-05T03:24:18.880Z,999.7
2023-03-05T03:25:20.319Z,999.7
2023-03-05T03:26:21.719Z,999.7
2023-03-05T03:27:23.127Z,999.7
2023-03-05T03:28:24.541Z,999.7
2023-03-05T03:29:25.958Z,999.7
2023-03-05T03:30:27.425Z,999.7
2023-03-05T03:31:28.812Z,999.7
2023-03-05T03:32:30.305Z,999.6
2023-03-05T03:33:31.809Z,999.6
2023-03-05T03:34:33.235Z,999.6
2023-03-05T03:35:34.834Z,999.6
2023-03-05T03:36:36.274Z,999.6
2023-03-05T03:37:37.692Z,999.6
2023-03-05T03:38:39.116Z,999.6
2023-03-05T03:39:40.524Z,999.6
2023-03-05T03:40:41.940Z,999.6
2023-03-05T03:41:43.357Z,999.5
2023-03-05T03:42:44.772Z,999.6
2023-03-05T03:43:46.190Z,999.5
2023-03-05T03:44:47.611Z,999.5
2023-03-05T03:45:49.194Z,999.5
2023-03-05T03:46:50.644Z,999.5
2023-03-05T03:47:52.066Z,999.5
2023-03-05T03:48:53.473Z,999.5
2023-03-05T03:49:54.893Z,999.5
2023-03-05T03:50:56.306Z,999.5
2023-03-05T03:51:57.720Z,999.4
2023-03-05T03:52:59.148Z,999.4
2023-03-05T03:54:00.566Z,999.4
2023-03-05T03:55:02.283Z,999.4
2023-03-05T03:56:03.699Z,999.4
2023-03-05T03:57:05.115Z,999.4
2023-03-05T03:58:06.528Z,999.3
2023-03-05T03:59:07.950Z,999.3
2023-03-05T04:00:09.361Z,999.3
2023-03-05T04:01:10.806Z,999.3
2023-03-05T04:02:12.285Z,999.3
2023-03-05T04:03:13.809Z,999.3
2023-03-05T04:04:15.282Z,999.3
2023-03-05T04:05:16.691Z,999.3
2023-03-05T04:06:18.100Z,999.2
2023-03-05T04:07:19.526Z,999.2
2023-03-05T04:08:20.948Z,999.2
2023-03-05T04:09:22.349Z,999.2
2023-03-05T04:10:23.757Z,999.2
2023-03-05T04:11:25.246Z,999.2
2023-03-05T04:12:26.702Z,999.2
2023-03-05T04:13:28.138Z,999.2
2023-03-05T04:14:29.532Z,999.2
2023-03-05T04:15:30.950Z,999.2
2023-03-05T04:16:32.400Z,999.2
2023-03-05T04:17:33.791Z,999.2
2023-03-05T04:18:35.205Z,999.1
2023-03-05T04:19:36.621Z,999.1
2023-03-05T04:20:38.030Z,999.1
2023-03-05T04:21:39.450Z,999.1
2023-03-05T04:22:40.868Z,999.1
2023-03-05T04:23:42.284Z,999.1
2023-03-05T04:24:43.692Z,999.1
2023-03-05T04:25:45.105Z,999.1
2023-03-05T04:26:46.522Z,999.1
2023-03-05T04:27:47.935Z,999.1
2023-03-05T04:28:49.347Z,999.1
2023-03-05T04:29:50.765Z,999.1
2023-03-05T04:30:52.256Z,999.1
2023-03-05T04:31:53.740Z,999.1
2023-03-05T04:32:55.119Z,999.1
2023-03-05T04:33:56.717Z,999.1
2023-03-05T04:34:58.138Z,999.1
2023-03-05T04:35:59.723Z,999
2023-03-05T04:37:01.144Z,999
2023-03-05T04:38:02.549Z,999
2023-03-05T04:39:03.962Z,999.1
2023-03-05T04:40:05.378Z,999
2023-03-05T04:41:06.797Z,999
2023-03-05T04:42:08.211Z,999
2023-03-05T04:43:09.619Z,999
2023-03-05T04:44:11.038Z,999
2023-03-05T04:45:12.460Z,999
2023-03-05T04:46:14.050Z,998.9
2023-03-05T04:47:15.566Z,998.9
2023-03-05T04:48:16.986Z,998.9
2023-03-05T04:49:18.379Z,998.9
2023-03-05T04:50:19.801Z,998.9
2023-03-05T04:51:21.236Z,998.8
2023-03-05T04:52:22.786Z,998.8
2023-03-05T04:53:24.197Z,998.8
2023-03-05T04:54:25.605Z,998.8
2023-03-05T04:55:27.033Z,998.8
2023-03-05T04:56:28.553Z,998.8
2023-03-05T04:57:29.981Z,998.8
2023-03-05T04:58:31.402Z,998.8
2023-03-05T04:59:32.811Z,998.8
2023-03-05T05:00:34.242Z,998.8
2023-03-05T05:01:35.747Z,998.8
2023-03-05T05:02:37.305Z,998.8
2023-03-05T05:03:38.742Z,998.8
2023-03-05T05:04:40.158Z,998.8
2023-03-05T05:05:41.573Z,998.7
2023-03-05T05:06:42.985Z,998.7
2023-03-05T05:07:44.129Z,998.7
2023-03-05T05:08:45.536Z,998.7
2023-03-05T05:09:46.995Z,998.7
2023-03-05T05:10:48.370Z,998.7
2023-03-05T05:11:49.787Z,998.7
2023-03-05T05:12:51.200Z,998.7
2023-03-05T05:13:52.616Z,998.7
2023-03-05T05:14:54.026Z,998.7
2023-03-05T05:15:55.504Z,998.8
2023-03-05T05:16:57.011Z,998.7
2023-03-05T05:17:58.447Z,998.7
2023-03-05T05:19:00.077Z,998.7
2023-03-05T05:20:01.582Z,998.7
2023-03-05T05:21:02.997Z,998.7
2023-03-05T05:22:04.418Z,998.7
2023-03-05T05:23:05.824Z,998.7
2023-03-05T05:24:07.245Z,998.7
2023-03-05T05:25:08.668Z,998.7
2023-03-05T05:26:10.114Z,998.7
2023-03-05T05:27:11.493Z,998.7
2023-03-05T05:28:12.915Z,998.7
2023-03-05T05:29:14.320Z,998.7
2023-03-05T05:30:15.737Z,998.7
2023-03-05T05:31:17.239Z,998.7
2023-03-05T05:32:18.832Z,998.7
2023-03-05T05:33:20.337Z,998.7
2023-03-05T05:34:21.725Z,998.7
2023-03-05T05:35:23.378Z,998.7
2023-03-05T05:36:24.798Z,998.6
2023-03-05T05:37:26.229Z,998.6
2023-03-05T05:38:27.626Z,998.6
2023-03-05T05:39:29.044Z,998.6
2023-03-05T05:40:30.453Z,998.6
2023-03-05T05:41:31.878Z,998.6
2023-03-05T05:42:33.310Z,998.7
2023-03-05T05:43:34.707Z,998.7
2023-03-05T05:44:36.121Z,998.7
2023-03-05T05:45:37.893Z,998.7
2023-03-05T05:46:39.869Z,998.6
2023-03-05T05:47:41.367Z,998.7
2023-03-05T05:48:42.837Z,998.7
2023-03-05T05:49:44.228Z,998.6
2023-03-05T05:50:45.642Z,998.6
2023-03-05T05:51:47.058Z,998.7
2023-03-05T05:52:48.473Z,998.6
2023-03-05T05:53:49.883Z,998.6
2023-03-05T05:54:51.301Z,998.6
2023-03-05T05:55:52.718Z,998.6
2023-03-05T05:56:54.132Z,998.6
2023-03-05T05:57:55.545Z,998.6
2023-03-05T05:58:56.959Z,998.6
2023-03-05T05:59:58.376Z,998.7
2023-03-05T06:00:59.791Z,998.7
2023-03-05T06:02:01.371Z,998.6
2023-03-05T06:03:02.943Z,998.6
2023-03-05T06:04:04.490Z,998.7
2023-03-05T06:05:05.887Z,998.6
2023-03-05T06:06:07.296Z,998.6
2023-03-05T06:07:08.713Z,998.6
2023-03-05T06:08:10.120Z,998.6
2023-03-05T06:09:11.536Z,998.7
2023-03-05T06:10:12.953Z,998.7
2023-03-05T06:11:14.364Z,998.6
2023-03-05T06:12:15.779Z,998.6
2023-03-05T06:13:17.193Z,998.6
2023-03-05T06:14:18.619Z,998.6
2023-03-05T06:15:20.023Z,998.6
2023-03-05T06:16:21.548Z,998.6
2023-03-05T06:17:31.276Z,998.6
2023-03-05T06:18:32.719Z,998.6
2023-03-05T06:19:34.268Z,998.6
2023-03-05T06:20:35.663Z,998.6
2023-03-05T06:21:37.078Z,998.6
2023-03-05T06:22:38.496Z,998.6
2023-03-05T06:23:39.908Z,998.6
2023-03-05T06:24:41.321Z,998.6
2023-03-05T06:25:42.736Z,998.6
2023-03-05T06:26:44.153Z,998.6
2023-03-05T06:27:45.566Z,998.5
2023-03-05T06:28:46.979Z,998.6
2023-03-05T06:29:48.394Z,998.5
2023-03-05T06:30:49.926Z,998.6
2023-03-05T06:31:51.360Z,998.6
2023-03-05T06:32:52.774Z,998.6
2023-03-05T06:33:54.200Z,998.6
2023-03-05T06:34:55.634Z,998.6
2023-03-05T06:35:57.109Z,998.6
2023-03-05T06:36:58.610Z,998.6
2023-03-05T06:38:00.033Z,998.6
2023-03-05T06:39:01.434Z,998.6
2023-03-05T06:40:02.849Z,998.6
2023-03-05T06:41:04.267Z,998.5
2023-03-05T06:42:05.678Z,998.6
2023-03-05T06:43:07.095Z,998.5
2023-03-05T06:44:08.517Z,998.5
2023-03-05T06:45:09.941Z,998.6
2023-03-05T06:46:11.515Z,998.5
2023-03-05T06:47:12.902Z,998.5
2023-03-05T06:48:14.311Z,998.5
2023-03-05T06:49:15.729Z,998.5
2023-03-05T06:50:17.178Z,998.5
2023-03-05T06:51:18.585Z,998.5
2023-03-05T06:52:19.980Z,998.5
2023-03-05T06:53:21.398Z,998.5
2023-03-05T06:54:22.813Z,998.5
2023-03-05T06:55:24.291Z,998.5
2023-03-05T06:56:25.723Z,998.5
2023-03-05T06:57:27.128Z,998.5
2023-03-05T06:58:28.571Z,998.5
2023-03-05T06:59:29.960Z,998.6
2023-03-05T07:00:31.685Z,998.6
2023-03-05T07:01:33.187Z,998.6
2023-03-05T07:02:35.010Z,998.6
2023-03-05T07:03:36.684Z,998.6
2023-03-05T07:04:38.102Z,998.6
2023-03-05T07:05:39.540Z,998.6
2023-03-05T07:06:40.923Z,998.6
2023-03-05T07:07:42.338Z,998.6
2023-03-05T07:08:43.755Z,998.6
2023-03-05T07:09:45.167Z,998.6
2023-03-05T07:10:46.800Z,998.6
2023-03-05T07:11:48.215Z,998.5
2023-03-05T07:12:49.647Z,998.5
2023-03-05T07:13:51.060Z,998.6
2023-03-05T07:14:52.475Z,998.5
2023-03-05T07:15:54.042Z,998.6
2023-03-05T07:16:55.476Z,998.5
2023-03-05T07:17:56.884Z,998.5
2023-03-05T07:18:58.300Z,998.5
2023-03-05T07:19:59.716Z,998.5
2023-03-05T07:21:01.157Z,998.5
2023-03-05T07:22:02.545Z,998.5
2023-03-05T07:23:03.964Z,998.5
2023-03-05T07:24:05.374Z,998.5
2023-03-05T07:25:06.789Z,998.5
2023-03-05T07:26:08.205Z,998.5
2023-03-05T07:27:09.620Z,998.5
2023-03-05T07:28:11.047Z,998.5
2023-03-05T07:29:12.453Z,998.5
2023-03-05T07:30:13.867Z,998.5
2023-03-05T07:31:15.443Z,998.4
2023-03-05T07:32:17.075Z,998.5
2023-03-05T07:33:18.473Z,998.4
2023-03-05T07:34:19.886Z,998.4
2023-03-05T07:35:21.351Z,998.4
2023-03-05T07:36:22.911Z,998.4
2023-03-05T07:37:24.295Z,998.4
2023-03-05T07:38:25.713Z,998.4
2023-03-05T07:39:27.130Z,998.4
2023-03-05T07:40:28.664Z,998.3
2023-03-05T07:41:30.093Z,998.4
2023-03-05T07:42:31.780Z,998.4
2023-03-05T07:43:33.231Z,998.3
2023-03-05T07:44:34.675Z,998.3
2023-03-05T07:45:36.062Z,998.3
2023-03-05T07:46:37.658Z,998.3
2023-03-05T07:47:39.244Z,998.3
2023-03-05T07:48:40.664Z,998.3
2023-03-05T07:49:42.078Z,998.2
2023-03-05T07:50:43.685Z,998.3
2023-03-05T07:51:45.281Z,998.3
2023-03-05T07:52:46.709Z,998.3
2023-03-05T07:53:48.184Z,998.3
2023-03-05T07:54:49.580Z,998.3
2023-03-05T07:55:50.994Z,998.3
2023-03-05T07:56:52.421Z,998.2
2023-03-05T07:57:53.851Z,998.3
2023-03-05T07:58:55.255Z,998.2
2023-03-05T07:59:56.664Z,998.3
2023-03-05T08:00:58.082Z,998.3
2023-03-05T08:01:59.494Z,998.3
2023-03-05T08:03:00.911Z,998.3
2023-03-05T08:04:02.591Z,998.3
2023-03-05T08:05:04.045Z,998.2
2023-03-05T08:06:05.457Z,998.3
2023-03-05T08:07:06.953Z,998.3
2023-03-05T08:08:08.344Z,998.3
2023-03-05T08:09:09.766Z,998.3
2023-03-05T08:10:11.168Z,998.3
2023-03-05T08:11:12.586Z,998.2
2023-03-05T08:12:14.478Z,998.2
2023-03-05T08:13:16.004Z,998.2
2023-03-05T08:14:17.474Z,998.2
2023-03-05T08:15:18.893Z,998.2
2023-03-05T08:16:20.457Z,998.2
2023-03-05T08:17:22.051Z,998.2
2023-03-05T08:18:23.466Z,998.2
2023-03-05T08:19:24.880Z,998.1
2023-03-05T08:20:26.401Z,998.1
2023-03-05T08:21:27.794Z,998.1
2023-03-05T08:22:29.255Z,998.1
2023-03-05T08:23:30.641Z,998.1
2023-03-05T08:24:32.145Z,998.1
2023-03-05T08:25:33.560Z,998.1
2023-03-05T08:26:34.978Z,998.1
2023-03-05T08:27:36.430Z,998.1
2023-03-05T08:28:37.801Z,998
2023-03-05T08:29:39.221Z,998
2023-03-05T08:30:40.721Z,998.1
2023-03-05T08:31:42.306Z,998.1
2023-03-05T08:32:43.866Z,998
2023-03-05T08:33:45.278Z,998
2023-03-05T08:34:46.701Z,998
2023-03-05T08:35:48.267Z,998
2023-03-05T08:36:49.830Z,998
2023-03-05T08:37:51.284Z,998
2023-03-05T08:38:52.671Z,998
2023-03-05T08:39:54.087Z,998
2023-03-05T08:40:55.502Z,998
2023-03-05T08:41:56.920Z,998
2023-03-05T08:42:58.333Z,998
2023-03-05T08:43:59.749Z,998
2023-03-05T08:45:01.161Z,998
2023-03-05T08:46:02.576Z,998
2023-03-05T08:47:03.995Z,998
2023-03-05T08:48:05.407Z,998
2023-03-05T08:49:06.829Z,998
2023-03-05T08:50:08.253Z,998
2023-03-05T08:51:09.663Z,998
2023-03-05T08:52:11.068Z,998
2023-03-05T08:53:12.524Z,998
2023-03-05T08:54:13.909Z,998
2023-03-05T08:55:15.319Z,998
2023-03-05T08:56:16.751Z,997.9
2023-03-05T08:57:18.152Z,997.9
2023-03-05T08:58:19.592Z,998
2023-03-05T08:59:21.007Z,997.9
2023-03-05T09:00:22.421Z,997.9
2023-03-05T09:01:24.043Z,997.9
2023-03-05T09:02:25.621Z,997.9
2023-03-05T09:03:27.051Z,997.9
2023-03-05T09:04:28.450Z,997.9
2023-03-05T09:05:29.876Z,997.9
2023-03-05T09:06:31.279Z,997.9
2023-03-05T09:07:32.690Z,997.8
2023-03-05T09:08:34.132Z,997.8
2023-03-05T09:09:35.537Z,997.8
2023-03-05T09:10:36.942Z,997.8
2023-03-05T09:11:38.366Z,997.8
2023-03-05T09:12:39.771Z,997.8
2023-03-05T09:13:41.755Z,997.8
2023-03-05T09:14:43.278Z,997.8
2023-03-05T09:15:44.957Z,997.7
2023-03-05T09:16:46.722Z,997.7
2023-03-05T09:17:48.271Z,997.7
2023-03-05T09:18:49.989Z,997.8
2023-03-05T09:19:51.488Z,997.8
2023-03-05T09:20:53.155Z,997.8
2023-03-05T09:21:57.588Z,997.8
2023-03-05T09:22:59.802Z,997.8
2023-03-05T09:24:01.626Z,997.7
2023-03-05T09:25:03.246Z,997.7
2023-03-05T09:26:04.755Z,997.7
2023-03-05T09:27:06.650Z,997.7
2023-03-05T09:28:08.058Z,997.6
2023-03-05T09:29:09.514Z,997.6
2023-03-05T09:30:10.885Z,997.6
2023-03-05T09:31:12.470Z,997.6
2023-03-05T09:32:14.241Z,997.6
2023-03-05T09:33:15.627Z,997.6
2023-03-05T09:34:17.037Z,997.6
2023-03-05T09:35:18.761Z,997.6
2023-03-05T09:36:20.256Z,997.5
2023-03-05T09:37:21.672Z,997.5
2023-03-05T09:38:23.093Z,997.5
2023-03-05T09:39:24.559Z,997.5
2023-03-05T09:40:25.944Z,997.5
2023-03-05T09:41:27.362Z,997.5
2023-03-05T09:42:28.776Z,997.5
2023-03-05T09:43:30.188Z,997.5
2023-03-05T09:44:31.603Z,997.5
2023-03-05T09:45:33.056Z,997.5
2023-03-05T09:46:34.555Z,997.5
2023-03-05T09:47:35.973Z,997.4
2023-03-05T09:48:37.390Z,997.4
2023-03-05T09:49:38.801Z,997.4
2023-03-05T09:50:40.245Z,997.4
2023-03-05T09:51:41.646Z,997.4
2023-03-05T09:52:43.067Z,997.4
2023-03-05T09:53:44.480Z,997.4
2023-03-05T09:54:45.918Z,997.5
2023-03-05T09:55:47.312Z,997.4
2023-03-05T09:56:48.721Z,997.4
2023-03-05T09:57:50.138Z,997.5
2023-03-05T09:58:56.769Z,997.5
2023-03-05T09:59:58.193Z,997.5
2023-03-05T10:00:59.610Z,997.5
2023-03-05T10:02:01.018Z,997.4
2023-03-05T10:03:02.498Z,997.5
2023-03-05T10:04:04.391Z,997.5
2023-03-05T10:05:05.922Z,997.5
2023-03-05T10:06:07.332Z,997.5
2023-03-05T10:07:09.426Z,997.5
2023-03-05T10:08:10.843Z,997.5
2023-03-05T10:09:12.264Z,997.5
2023-03-05T10:10:13.696Z,997.5
2023-03-05T10:11:15.185Z,997.5
2023-03-05T10:12:16.593Z,997.5
2023-03-05T10:13:18.006Z,997.5
2023-03-05T10:14:19.421Z,997.5
2023-03-05T10:15:20.841Z,997.5
2023-03-05T10:16:22.289Z,997.5
2023-03-05T10:17:23.824Z,997.4
2023-03-05T10:18:25.235Z,997.5
2023-03-05T10:19:26.651Z,997.5
2023-03-05T10:20:28.067Z,997.5
2023-03-05T10:21:29.484Z,997.5
2023-03-05T10:22:30.898Z,997.4
2023-03-05T10:23:32.312Z,997.4
2023-03-05T10:24:33.722Z,997.5
2023-03-05T10:25:35.171Z,997.4
2023-03-05T10:26:36.569Z,997.4
2023-03-05T10:27:38.550Z,997.4
2023-03-05T10:28:39.960Z,997.3
2023-03-05T10:29:41.415Z,997.3
2023-03-05T10:30:42.798Z,997.3
2023-03-05T10:31:44.233Z,997.3
2023-03-05T10:32:45.899Z,997.3
2023-03-05T10:33:47.386Z,997.3
2023-03-05T10:34:48.822Z,997.4
2023-03-05T10:35:50.320Z,997.3
2023-03-05T10:36:51.813Z,997.3
2023-03-05T10:37:53.232Z,997.3
2023-03-05T10:38:54.657Z,997.3
2023-03-05T10:39:56.056Z,997.3
2023-03-05T10:40:57.498Z,997.2
2023-03-05T10:41:58.893Z,997.3
2023-03-05T10:43:00.300Z,997.2
2023-03-05T10:44:01.716Z,997.2
2023-03-05T10:45:03.138Z,997.2
2023-03-05T10:46:04.742Z,997.3
2023-03-05T10:47:06.220Z,997.3
2023-03-05T10:48:07.634Z,997.3
2023-03-05T10:49:09.049Z,997.2
2023-03-05T10:50:10.464Z,997.2
2023-03-05T10:51:11.879Z,997.2
2023-03-05T10:52:13.291Z,997.2
2023-03-05T10:53:14.776Z,997.2
2023-03-05T10:54:16.148Z,997.2
2023-03-05T10:55:17.562Z,997.2
2023-03-05T10:56:19.015Z,997.2
2023-03-05T10:57:20.409Z,997.1
2023-03-05T10:58:25.045Z,997.2
2023-03-05T10:59:26.464Z,997.1
2023-03-05T11:00:27.927Z,997
2023-03-05T11:01:29.521Z,997.1
2023-03-05T11:02:31.041Z,997.1
2023-03-05T11:03:32.543Z,997.1
2023-03-05T11:04:33.960Z,997.1
2023-03-05T11:05:35.368Z,997
2023-03-05T11:06:36.799Z,997
2023-03-05T11:07:38.204Z,997
2023-03-05T11:08:39.614Z,997
2023-03-05T11:09:41.032Z,997
2023-03-05T11:10:42.443Z,996.9
2023-03-05T11:11:43.882Z,996.9
2023-03-05T11:12:45.287Z,996.9
2023-03-05T11:13:46.692Z,996.9
2023-03-05T11:14:48.106Z,996.9
2023-03-05T11:15:49.637Z,996.9
2023-03-05T11:16:51.824Z,996.9
2023-03-05T11:17:53.245Z,996.9
2023-03-05T11:18:54.650Z,996.9
2023-03-05T11:19:56.084Z,996.9
2023-03-05T11:20:57.482Z,996.9
2023-03-05T11:22:00.323Z,996.9
2023-03-05T11:23:01.742Z,996.9
2023-03-05T11:24:03.314Z,996.9
2023-03-05T11:25:04.731Z,996.9
2023-03-05T11:26:06.148Z,996.9
2023-03-05T11:27:07.586Z,996.9
2023-03-05T11:28:08.973Z,996.9
2023-03-05T11:29:10.389Z,996.9
2023-03-05T11:30:11.803Z,996.9
2023-03-05T11:31:13.323Z,996.9
2023-03-05T11:32:14.798Z,996.9
2023-03-05T11:33:16.270Z,996.8
2023-03-05T11:34:17.683Z,996.8
2023-03-05T11:35:19.247Z,996.8
2023-03-05T11:36:20.645Z,996.8
2023-03-05T11:37:22.057Z,996.8
2023-03-05T11:38:23.471Z,996.8
2023-03-05T11:39:24.885Z,996.8
2023-03-05T11:40:26.303Z,996.9
2023-03-05T11:41:27.719Z,996.8
2023-03-05T11:42:29.166Z,996.8
2023-03-05T11:43:30.544Z,996.8
2023-03-05T11:44:31.959Z,996.8
2023-03-05T11:45:33.373Z,996.8
2023-03-05T11:46:34.965Z,996.8
2023-03-05T11:47:36.379Z,996.7
2023-03-05T11:48:37.794Z,996.7
2023-03-05T11:49:39.205Z,996.7
2023-03-05T11:50:40.620Z,996.6
2023-03-05T11:51:42.211Z,996.5
2023-03-05T11:52:43.610Z,996.6
2023-03-05T11:53:45.028Z,996.6
2023-03-05T11:54:46.444Z,996.5
2023-03-05T11:55:47.859Z,996.4
2023-03-05T11:56:49.440Z,996.4
2023-03-05T11:57:50.890Z,996.4
2023-03-05T11:58:52.282Z,996.4
2023-03-05T11:59:53.700Z,996.4
2023-03-05T12:00:55.119Z,996.3
2023-03-05T12:01:56.545Z,996.4
2023-03-05T12:02:57.986Z,996.4
2023-03-05T12:03:59.391Z,996.4
2023-03-05T12:05:00.810Z,996.4
2023-03-05T12:06:02.220Z,996.4
2023-03-05T12:07:03.762Z,996.5
2023-03-05T12:08:05.218Z,996.4
2023-03-05T12:09:06.632Z,996.4
2023-03-05T12:10:08.061Z,996.4
2023-03-05T12:11:09.476Z,996.4
2023-03-05T12:12:10.895Z,996.3
2023-03-05T12:13:12.336Z,996.3
2023-03-05T12:14:13.726Z,996.3
2023-03-05T12:15:15.138Z,996.3
2023-03-05T12:16:16.613Z,996.3
2023-03-05T12:17:18.092Z,996.2
2023-03-05T12:18:19.527Z,996.2
2023-03-05T12:19:20.942Z,996.2
2023-03-05T12:20:22.561Z,996.2
2023-03-05T12:21:24.044Z,996.2
2023-03-05T12:22:25.465Z,996.2
2023-03-05T12:23:26.875Z,996.1
2023-03-05T12:24:29.145Z,996.1
2023-03-05T12:25:30.575Z,996.1
2023-03-05T12:26:31.999Z,996.1
2023-03-05T12:27:33.383Z,996.1
2023-03-05T12:28:34.833Z,996.1
2023-03-05T12:29:36.220Z,996.1
2023-03-05T12:30:37.633Z,996
2023-03-05T12:31:39.544Z,996
2023-03-05T12:32:41.773Z,996
2023-03-05T12:33:44.057Z,996
2023-03-05T12:34:45.471Z,996
2023-03-05T12:35:49.576Z,996
2023-03-05T12:36:51.074Z,996
2023-03-05T12:37:52.512Z,996
2023-03-05T12:38:53.911Z,996
2023-03-05T12:39:55.037Z,996
2023-03-05T12:40:56.448Z,996
2023-03-05T12:41:57.864Z,995.9
2023-03-05T12:42:59.279Z,996
2023-03-05T12:44:00.721Z,996
2023-03-05T12:45:02.109Z,996
2023-03-05T12:46:03.530Z,995.9
2023-03-05T12:47:04.943Z,995.9
2023-03-05T12:48:06.358Z,995.9
2023-03-05T12:49:07.780Z,995.9
2023-03-05T12:50:09.193Z,995.9
2023-03-05T12:51:10.331Z,995.9
2023-03-05T12:52:11.758Z,995.9
2023-03-05T12:53:13.165Z,995.9
2023-03-05T12:54:14.295Z,995.9
2023-03-05T12:55:15.713Z,995.9
2023-03-05T12:56:17.127Z,995.8
2023-03-05T12:57:18.541Z,995.8
2023-03-05T12:58:19.961Z,995.8
2023-03-05T12:59:21.393Z,995.8
2023-03-05T13:00:22.794Z,995.8
2023-03-05T13:01:24.199Z,995.8
2023-03-05T13:02:25.620Z,995.7
2023-03-05T13:03:27.091Z,995.7
2023-03-05T13:04:28.539Z,995.7
2023-03-05T13:05:29.951Z,995.6
2023-03-05T13:06:31.373Z,995.6
2023-03-05T13:07:32.802Z,995.6
2023-03-05T13:08:34.194Z,995.6
2023-03-05T13:09:35.615Z,995.6
2023-03-05T13:10:37.027Z,995.6
2023-03-05T13:11:38.593Z,995.6